Time;durP1;ratioP1;P1;durP2;ratioP2;P2;SDS_P1;SDS_P2;PMS_P1;PMS_P2;Temp;Humidity;BMP_temperature;BMP_pressure;BME280_temperature;BME280_humidity;BME280_pressure;Samples;Min_cycle;Max_cycle;Signal;HPM_P1;HPM_P2
2022/09/26 00:02:25;;;;;;;6.90;4.50;;;;;;;16.19;52.48;94606.31;5109524;28;20204;-76
2022/09/26 00:04:52;;;;;;;5.50;4.27;;;;;;;16.10;52.74;94594.41;5109830;28;20181;-76
2022/09/26 00:07:21;;;;;;;4.43;4.00;;;;;;;16.05;52.53;94588.97;5109042;28;20185;-77
2022/09/26 00:09:48;;;;;;;5.20;4.53;;;;;;;16.16;52.65;94603.25;5109158;28;20231;-78
2022/09/26 00:12:14;;;;;;;14.73;4.33;;;;;;;16.14;52.45;94600.84;5089143;28;20197;-75
2022/09/26 00:14:42;;;;;;;6.10;4.77;;;;;;;16.14;52.60;94603.41;5089515;28;20189;-75
2022/09/26 00:17:08;;;;;;;6.07;4.70;;;;;;;15.98;52.64;94565.66;5093793;28;20185;-76
2022/09/26 00:19:35;;;;;;;6.00;4.37;;;;;;;16.12;52.92;94589.91;5109691;28;20193;-77
2022/09/26 00:22:02;;;;;;;5.13;4.63;;;;;;;14.93;52.80;94404.84;5109166;28;20201;-77
2022/09/26 00:24:30;;;;;;;5.10;4.60;;;;;;;15.88;52.91;94551.41;5109286;28;20222;-78
2022/09/26 00:26:57;;;;;;;4.90;4.47;;;;;;;16.12;52.93;94587.31;5108873;28;20197;-77
2022/09/26 00:29:24;;;;;;;9.03;5.03;;;;;;;16.11;52.89;94579.75;5109296;28;20219;-77
2022/09/26 00:31:52;;;;;;;6.97;4.40;;;;;;;16.14;52.86;94587.13;5109137;28;20189;-77
2022/09/26 00:34:20;;;;;;;9.47;4.90;;;;;;;16.15;52.89;94586.97;5109782;28;20181;-75
2022/09/26 00:36:46;;;;;;;8.27;5.63;;;;;;;16.03;53.08;94565.16;5109362;28;20192;-78
2022/09/26 00:39:15;;;;;;;5.77;4.77;;;;;;;16.09;53.15;94566.22;5109204;28;20257;-76
2022/09/26 00:41:45;;;;;;;5.30;4.63;;;;;;;16.10;53.03;94563.47;5109371;28;20181;-79
2022/09/26 00:44:37;;;;;;;5.83;5.20;;;;;;;16.18;52.99;94578.06;5109707;28;20185;-77
2022/09/26 00:47:05;;;;;;;5.97;5.13;;;;;;;16.04;53.26;94554.66;5109109;28;20721;-77
2022/09/26 00:49:35;;;;;;;6.57;5.47;;;;;;;16.17;53.42;94571.31;5108649;28;20580;-77
2022/09/26 00:52:08;;;;;;;6.17;5.17;;;;;;;16.11;53.22;94566.88;5108975;28;20189;-77
2022/09/26 00:54:38;;;;;;;6.37;4.70;;;;;;;16.17;53.28;94574.69;5109042;28;20560;-77
2022/09/26 00:57:10;;;;;;;8.37;5.23;;;;;;;16.17;53.45;94566.16;5109159;28;20672;-77
2022/09/26 00:59:42;;;;;;;7.47;5.60;;;;;;;16.17;53.56;94561.78;5109488;28;20218;-77
2022/09/26 01:02:09;;;;;;;5.67;4.80;;;;;;;16.17;53.47;94561.78;5108728;28;20614;-77
2022/09/26 01:04:38;;;;;;;7.17;5.50;;;;;;;16.18;53.63;94567.75;5108465;28;20186;-76
2022/09/26 01:07:12;;;;;;;7.83;5.10;;;;;;;16.19;53.64;94572.75;5108745;28;20228;-76
2022/09/26 01:09:39;;;;;;;7.17;4.53;;;;;;;16.20;53.46;94570.97;5090797;28;20424;-76
2022/09/26 01:12:09;;;;;;;6.80;5.20;;;;;;;16.20;53.57;94566.63;5110091;28;20211;-77
2022/09/26 01:14:39;;;;;;;6.33;5.50;;;;;;;16.14;53.52;94554.41;5113214;28;20570;-76
2022/09/26 01:17:06;;;;;;;6.00;4.97;;;;;;;16.22;53.45;94580.13;5115433;28;20185;-78
2022/09/26 01:19:43;;;;;;;6.20;5.10;;;;;;;16.15;53.34;94556.03;5114994;28;20189;-76
2022/09/26 01:22:35;;;;;;;6.00;5.17;;;;;;;16.23;53.59;94558.50;5114056;28;20557;-76
2022/09/26 01:25:17;;;;;;;5.97;4.57;;;;;;;16.17;53.55;94555.84;5113242;28;20193;-76
2022/09/26 01:28:04;;;;;;;7.97;5.23;;;;;;;16.24;53.75;94564.50;5113228;28;20189;-75
2022/09/26 01:30:41;;;;;;;6.47;4.90;;;;;;;16.24;53.75;94556.75;5112397;28;20644;-76
2022/09/26 01:33:40;;;;;;;6.30;5.10;;;;;;;16.24;53.82;94565.28;5112942;28;20452;-76
2022/09/26 01:36:34;;;;;;;5.30;4.80;;;;;;;15.72;53.96;94483.53;5092284;28;20188;-75
2022/09/26 01:39:20;;;;;;;6.93;5.73;;;;;;;16.24;53.81;94562.72;5091694;28;20209;-75
2022/09/26 01:41:54;;;;;;;5.73;4.87;;;;;;;16.26;53.87;94572.84;5091962;28;20190;-77
2022/09/26 01:44:32;;;;;;;8.43;5.53;;;;;;;16.05;53.96;94535.59;5095976;28;20193;-76
2022/09/26 01:47:08;;;;;;;5.87;5.27;;;;;;;16.27;53.83;94559.75;5112887;28;20192;-76
2022/09/26 01:49:44;;;;;;;7.70;5.27;;;;;;;16.29;53.99;94555.22;5114194;28;20213;-77
2022/09/26 01:52:18;;;;;;;5.90;4.93;;;;;;;16.31;53.89;94557.63;5113784;28;20192;-77
2022/09/26 01:54:52;;;;;;;6.67;5.47;;;;;;;16.26;54.03;94545.25;5115439;28;20176;-77
2022/09/26 01:57:26;;;;;;;6.67;4.80;;;;;;;16.28;53.82;94548.47;5095650;28;20194;-76
2022/09/26 01:59:57;;;;;;;8.67;5.37;;;;;;;16.34;53.95;94549.53;5093262;28;20178;-75
2022/09/26 02:02:32;;;;;;;6.03;4.70;;;;;;;16.36;54.06;94549.34;5092172;28;20186;-78
2022/09/26 02:05:04;;;;;;;5.37;4.77;;;;;;;16.16;53.87;94512.97;5091663;28;20196;-77
2022/09/26 02:07:36;;;;;;;6.40;5.03;;;;;;;16.37;53.95;94541.47;5109345;28;20193;-76
2022/09/26 02:10:08;;;;;;;7.53;5.37;;;;;;;16.25;53.92;94527.38;5112074;28;20220;-78
2022/09/26 02:12:38;;;;;;;5.43;4.83;;;;;;;16.41;53.97;94547.06;5111576;28;20189;-78
2022/09/26 02:15:10;;;;;;;6.97;4.83;;;;;;;16.15;53.88;94501.84;5111886;28;20200;-77
2022/09/26 02:17:41;;;;;;;5.70;4.50;;;;;;;16.43;53.99;94540.75;5110649;28;20197;-77
2022/09/26 02:20:13;;;;;;;7.03;4.83;;;;;;;16.44;53.87;94538.94;5112213;28;20189;-76
2022/09/26 02:22:41;;;;;;;7.77;4.97;;;;;;;16.44;53.87;94534.59;5090987;28;20185;-77
2022/09/26 02:25:10;;;;;;;6.43;5.30;;;;;;;16.46;53.91;94534.44;5091453;28;20186;-76
2022/09/26 02:27:37;;;;;;;5.30;4.80;;;;;;;16.23;53.86;94490.63;5103159;28;20234;-75
2022/09/26 02:30:06;;;;;;;5.87;5.27;;;;;;;16.48;53.94;94525.50;5111506;28;20611;-76
2022/09/26 02:32:34;;;;;;;9.37;5.80;;;;;;;16.44;53.93;94510.56;5111987;28;20192;-75
2022/09/26 02:35:52;;;;;;;8.40;5.37;;;;;;;16.36;53.78;94500.31;5111730;28;20192;-76
2022/09/26 02:38:00;;;;;;;7.33;5.00;;;;;;;16.51;53.89;94522.59;5112118;28;20271;-75
2022/09/26 02:40:35;;;;;;;6.67;5.67;;;;;;;16.52;53.91;94515.63;5099097;28;20185;-77
2022/09/26 02:43:28;;;;;;;6.93;5.30;;;;;;;16.11;54.02;94443.03;5097110;28;20251;-77
2022/09/26 02:46:06;;;;;;;6.90;5.83;;;;;;;16.50;53.92;94499.53;5090942;28;20190;-80
2022/09/26 02:48:48;;;;;;;5.77;5.17;;;;;;;16.55;54.02;94513.50;5090930;28;20189;-77
2022/09/26 02:51:34;;;;;;;6.30;5.20;;;;;;;16.56;54.19;94501.41;5091314;28;20217;-76
2022/09/26 02:54:17;;;;;;;6.43;4.97;;;;;;;16.51;54.16;94501.13;5090357;28;20714;-76
2022/09/26 02:57:00;;;;;;;5.90;5.30;;;;;;;16.56;54.04;94501.41;5090496;28;20192;-79
2022/09/26 02:59:35;;;;;;;7.33;5.57;;;;;;;16.56;54.05;94496.22;5090296;28;20193;-80
2022/09/26 03:02:10;;;;;;;8.97;5.80;;;;;;;16.41;54.02;94474.81;5109496;28;20215;-79
2022/09/26 03:04:44;;;;;;;7.97;5.70;;;;;;;16.58;54.07;94488.28;5110113;28;20176;-78
2022/09/26 03:07:18;;;;;;;7.00;5.53;;;;;;;16.58;53.84;94485.72;5110591;28;20242;-79
2022/09/26 03:09:46;;;;;;;9.97;5.50;;;;;;;16.59;54.05;94484.75;5110220;28;20703;-78
2022/09/26 03:12:15;;;;;;;7.43;5.43;;;;;;;16.58;54.17;94494.28;5110241;28;20193;-75
2022/09/26 03:14:44;;;;;;;7.53;5.37;;;;;;;16.59;54.17;94489.91;5110217;28;20192;-78
2022/09/26 03:17:11;;;;;;;8.43;4.77;;;;;;;16.57;54.12;94497.81;5110560;28;20226;-76
2022/09/26 03:19:41;;;;;;;5.93;5.10;;;;;;;16.59;54.24;94495.09;5109867;28;20189;-74
2022/09/26 03:22:09;;;;;;;7.07;5.80;;;;;;;16.40;54.32;94468.00;5110251;28;20177;-79
2022/09/26 03:24:41;;;;;;;6.83;5.67;;;;;;;16.56;54.17;94484.13;5110153;28;20201;-77
2022/09/26 03:27:11;;;;;;;7.93;5.80;;;;;;;16.58;54.34;94490.88;5110272;28;20568;-77
2022/09/26 03:29:37;;;;;;;6.90;5.63;;;;;;;16.57;54.27;94477.16;5110967;28;20249;-79
2022/09/26 03:32:05;;;;;;;9.63;5.80;;;;;;;16.57;54.38;94469.44;5110262;28;20185;-77
2022/09/26 03:34:31;;;;;;;7.33;6.03;;;;;;;16.58;54.28;94472.81;5112974;28;20193;-81
2022/09/26 03:37:01;;;;;;;10.33;6.50;;;;;;;16.58;54.26;94478.78;5111767;28;20208;-79
2022/09/26 03:39:28;;;;;;;7.50;5.53;;;;;;;16.28;54.32;94423.81;5113269;28;20623;-79
2022/09/26 03:41:59;;;;;;;10.30;6.03;;;;;;;16.59;54.15;94464.09;5111137;28;20297;-80
2022/09/26 03:44:28;;;;;;;8.60;5.63;;;;;;;16.48;54.42;94455.81;5113124;28;20177;-80
2022/09/26 03:46:55;;;;;;;6.97;5.63;;;;;;;16.50;54.58;94456.44;5110707;28;20276;-80
2022/09/26 03:49:22;;;;;;;8.77;5.47;;;;;;;16.21;54.44;94417.75;5110558;28;20193;-78
2022/09/26 03:51:49;;;;;;;8.03;5.77;;;;;;;16.59;54.42;94482.97;5109851;28;20684;-79
2022/09/26 03:54:16;;;;;;;6.37;5.60;;;;;;;16.59;54.62;94482.97;5109529;28;20192;-77
2022/09/26 03:56:43;;;;;;;8.50;5.70;;;;;;;16.34;54.54;94435.19;5109983;28;20185;-76
2022/09/26 03:59:12;;;;;;;8.40;5.30;;;;;;;16.17;54.66;94403.63;5109934;28;20189;-78
2022/09/26 04:01:39;;;;;;;7.67;6.30;;;;;;;16.64;54.59;94478.06;5109493;28;20203;-76
2022/09/26 04:04:06;;;;;;;8.17;5.90;;;;;;;16.64;54.74;94472.09;5109901;28;20185;-78
2022/09/26 04:06:33;;;;;;;6.80;5.63;;;;;;;16.49;54.88;94444.53;5109170;28;20220;-78
2022/09/26 04:09:00;;;;;;;9.10;6.13;;;;;;;16.55;54.72;94458.50;5109661;28;20269;-79
2022/09/26 04:11:27;;;;;;;7.63;5.73;;;;;;;16.68;54.70;94478.50;5109141;28;20222;-79
2022/09/26 04:13:54;;;;;;;7.63;5.87;;;;;;;16.68;54.73;94475.94;5109764;28;20188;-78
2022/09/26 04:16:23;;;;;;;6.70;5.77;;;;;;;16.68;54.71;94475.94;5109512;28;20189;-77
2022/09/26 04:18:49;;;;;;;8.13;5.73;;;;;;;16.70;54.81;94481.69;5109825;28;20189;-79
2022/09/26 04:21:17;;;;;;;6.97;6.20;;;;;;;16.62;54.83;94471.47;5109947;28;20636;-80
2022/09/26 04:23:46;;;;;;;9.40;5.63;;;;;;;16.51;54.77;94441.75;5109631;28;20196;-76
2022/09/26 04:26:16;;;;;;;6.70;6.10;;;;;;;16.48;54.57;94440.31;5109498;28;20177;-77
2022/09/26 04:28:44;;;;;;;6.73;5.60;;;;;;;16.42;54.72;94435.91;5108963;28;20231;-77
2022/09/26 04:31:12;;;;;;;8.37;5.67;;;;;;;16.74;54.87;94480.38;5109668;28;20786;-78
2022/09/26 04:33:44;;;;;;;5.33;4.33;;;;;;;17.02;79.83;94493.44;5110084;28;20203;-80
2022/09/26 04:36:12;;;;;;;9.70;4.43;;;;;;;17.37;79.38;94486.66;5109557;28;20243;-82
2022/09/26 04:38:39;;;;;;;11.20;5.00;;;;;;;17.48;75.38;94462.06;5108127;28;20223;-78
2022/09/26 04:41:08;;;;;;;7.80;5.80;;;;;;;17.75;70.39;94487.22;5108672;28;20272;-77
2022/09/26 04:43:36;;;;;;;7.37;5.53;;;;;;;17.82;68.20;94487.25;5106476;28;20185;-78
2022/09/26 04:46:07;;;;;;;9.27;6.00;;;;;;;17.87;67.08;94490.06;5109563;28;20185;-82
2022/09/26 04:48:34;;;;;;;10.17;6.03;;;;;;;17.76;66.27;94464.75;5110868;28;20192;-77
2022/09/26 04:51:06;;;;;;;10.27;5.67;;;;;;;17.75;65.28;94447.63;5112716;28;20205;-80
2022/09/26 04:53:33;;;;;;;7.23;5.40;;;;;;;17.96;64.56;94480.38;5113155;28;20200;-80
2022/09/26 04:56:00;;;;;;;7.93;6.10;;;;;;;17.96;63.69;94480.38;5113987;28;20200;-78
2022/09/26 04:58:27;;;;;;;10.17;6.40;;;;;;;17.94;63.02;94477.19;5113772;28;20185;-82
2022/09/26 05:00:54;;;;;;;10.70;6.07;;;;;;;17.72;62.65;94446.16;5113758;28;20189;-80
2022/09/26 05:03:21;;;;;;;8.60;6.03;;;;;;;17.90;62.12;94478.56;5113189;28;20189;-78
2022/09/26 05:05:49;;;;;;;8.10;5.90;;;;;;;17.89;61.63;94480.34;5113446;28;20220;-80
2022/09/26 05:08:17;;;;;;;8.43;6.13;;;;;;;17.89;61.31;94470.00;5113922;28;20189;-79
2022/09/26 05:10:51;;;;;;;8.50;5.70;;;;;;;17.78;60.71;94447.22;5113741;28;20197;-77
2022/09/26 05:13:18;;;;;;;11.37;6.10;;;;;;;17.97;60.29;94475.03;5113615;28;20201;-78
2022/09/26 05:15:45;;;;;;;6.87;5.90;;;;;;;18.02;59.88;94479.66;5113033;28;20620;-81
2022/09/26 05:18:12;;;;;;;9.50;6.37;;;;;;;18.04;59.65;94467.31;5113432;28;20192;-77
2022/09/26 05:20:39;;;;;;;8.57;6.00;;;;;;;17.89;59.34;94427.81;5114116;28;20188;-82
2022/09/26 05:23:07;;;;;;;8.47;6.23;;;;;;;18.06;58.85;94442.06;5117090;28;20193;-79
2022/09/26 05:28:24;;;;;;;11.33;6.77;;;;;;;18.16;58.55;94405.47;5106161;28;20343;-85
2022/09/26 05:30:51;;;;;;;12.07;6.80;;;;;;;18.94;58.67;94450.06;5119851;28;20213;-75
2022/09/26 05:33:18;;;;;;;9.40;6.00;;;;;;;19.55;59.00;94453.34;5115710;28;20231;-79
2022/09/26 05:35:49;;;;;;;9.63;5.70;;;;;;;19.35;58.66;94307.34;5112128;28;20264;-75
2022/09/26 05:38:15;;;;;;;12.23;6.30;;;;;;;20.92;57.73;94428.34;5111355;28;20186;-76
2022/09/26 05:40:55;;;;;;;7.90;6.13;;;;;;;21.63;55.99;94435.16;5111923;28;20193;-76
2022/09/26 05:43:22;;;;;;;13.13;6.35;;;;;;;21.91;54.61;94398.25;5112251;28;20551;-78
2022/09/26 05:45:49;;;;;;;8.10;6.13;;;;;;;22.43;53.60;94418.78;5110868;28;20249;-75
2022/09/26 05:48:17;;;;;;;8.43;6.22;;;;;;;22.52;52.59;94396.63;5111467;28;20192;-77
2022/09/26 05:50:44;;;;;;;8.05;6.35;;;;;;;22.98;51.90;94445.63;5111714;28;20372;-74
2022/09/26 05:53:11;;;;;;;13.38;7.03;;;;;;;23.17;51.16;94453.41;5112010;28;20299;-76
2022/09/26 05:55:37;;;;;;;11.80;7.38;;;;;;;23.04;50.33;94402.22;5112869;28;20667;-75
2022/09/26 05:58:06;;;;;;;9.77;6.50;;;;;;;23.64;49.77;94454.34;5111833;28;20640;-74
2022/09/26 06:00:34;;;;;;;10.90;6.47;;;;;;;23.64;49.12;94424.81;5112472;28;20670;-75
2022/09/26 06:03:02;;;;;;;8.68;6.40;;;;;;;23.99;49.04;94459.63;5112954;28;20189;-75
2022/09/26 06:05:31;;;;;;;7.82;6.57;;;;;;;24.29;48.34;94463.94;5110883;28;20577;-75
2022/09/26 06:08:00;;;;;;;12.27;6.68;;;;;;;24.61;47.84;94437.44;5111583;28;20209;-75
2022/09/26 06:10:28;;;;;;;13.38;7.65;;;;;;;25.30;47.39;94459.19;5111283;28;20786;-75
2022/09/26 06:12:54;;;;;;;16.65;6.82;;;;;;;25.90;46.78;94465.72;5111098;28;20200;-76
2022/09/26 06:15:23;;;;;;;13.77;7.07;;;;;;;26.46;45.67;94462.13;5110916;28;20355;-76
2022/09/26 06:17:58;;;;;;;10.40;6.78;;;;;;;27.11;45.12;94468.44;5110747;28;20197;-75
2022/09/26 06:20:25;;;;;;;12.32;6.90;;;;;;;27.58;43.89;94462.63;5109969;28;20180;-78
2022/09/26 06:22:54;;;;;;;11.05;6.95;;;;;;;28.10;43.33;94464.63;5110863;28;20209;-76
2022/09/26 06:25:21;;;;;;;8.65;6.63;;;;;;;28.43;42.68;94468.03;5091767;28;20242;-81
2022/09/26 06:27:47;;;;;;;12.40;7.22;;;;;;;28.59;42.26;94467.09;5110881;28;20204;-75
2022/09/26 06:30:15;;;;;;;16.80;7.88;;;;;;;28.78;41.60;94471.91;5109292;28;20284;-79
2022/09/26 06:32:45;;;;;;;10.25;6.68;;;;;;;28.71;40.96;94459.78;5111659;27;20221;-77
2022/09/26 06:35:12;;;;;;;11.13;6.85;;;;;;;28.78;40.85;94469.28;5110236;28;20914;-75
2022/09/26 06:37:39;;;;;;;10.85;6.53;;;;;;;28.77;40.47;94457.94;5091970;28;20243;-80
2022/09/26 06:40:10;;;;;;;9.10;7.03;;;;;;;28.68;40.97;94462.13;5110404;28;20185;-78
2022/09/26 06:42:42;;;;;;;10.48;6.20;;;;;;;28.57;40.97;94444.69;5110429;28;20250;-77
2022/09/26 06:48:26;;;;;;;13.50;6.78;;;;;;;29.07;40.38;94452.03;5027555;28;20199;-75
2022/09/26 06:50:53;;;;;;;10.55;6.97;;;;;;;29.51;40.21;94448.97;5031750;28;20265;-79
2022/09/26 06:53:21;;;;;;;11.23;7.00;;;;;;;30.07;39.35;94456.13;5027111;28;20637;-76
2022/09/26 06:55:48;;;;;;;12.52;6.40;;;;;;;30.53;38.67;94456.06;5028908;28;20369;-73
2022/09/26 07:01:10;;;;;;;6.93;5.85;;;;;;;31.67;37.61;94461.38;4892147;29;20671;-77
2022/09/26 10:38:22;;;;;;;7.43;3.53;;;;;;;30.45;32.45;94281.38;5029896;28;20258;-90
2022/09/26 10:41:02;;;;;;;9.15;3.50;;;;;;;30.45;32.52;94276.09;5034341;28;20213;-90
2022/09/26 10:43:53;;;;;;;9.48;3.40;;;;;;;30.47;33.00;94270.53;5034409;28;20191;-90
2022/09/26 10:46:32;;;;;;;6.05;3.35;;;;;;;30.42;32.68;94263.44;5033636;28;20199;-88
2022/09/26 10:49:11;;;;;;;6.13;3.83;;;;;;;30.38;32.92;94251.84;5036599;28;20191;-91
2022/09/26 10:51:50;;;;;;;7.15;3.58;;;;;;;30.46;32.72;94258.41;5034793;28;20234;-86
2022/09/26 10:54:46;;;;;;;5.80;3.60;;;;;;;30.48;32.70;94262.38;5035174;28;20277;-91
2022/09/26 10:57:33;;;;;;;8.90;3.45;;;;;;;30.48;33.13;94262.38;5035990;28;20191;-89
2022/09/26 11:00:08;;;;;;;5.65;3.67;;;;;;;30.46;33.19;94258.41;5041431;28;20574;-85
2022/09/26 11:02:51;;;;;;;3.50;3.15;;;;;;;30.45;33.01;94265.53;5034727;28;20195;-87
2022/09/26 11:08:08;;;;;;;4.72;2.90;;;;;;;30.44;33.00;94249.97;5033224;28;20206;-86
2022/09/26 11:10:40;;;;;;;3.55;3.05;;;;;;;30.44;32.90;94242.84;5034400;28;20195;-88
2022/09/26 11:13:16;;;;;;;5.10;3.00;;;;;;;30.33;33.05;94219.44;5031898;28;20365;-82
2022/09/26 11:15:55;;;;;;;8.65;3.20;;;;;;;30.46;32.95;94238.09;5042369;28;20207;-84
2022/09/26 11:18:35;;;;;;;4.32;3.25;;;;;;;30.34;33.04;94232.34;5030712;28;20201;-93
2022/09/26 11:21:14;;;;;;;3.80;3.20;;;;;;;30.34;33.02;94226.28;5041571;28;20670;-87
2022/09/26 11:23:55;;;;;;;3.75;2.78;;;;;;;30.33;33.20;94222.84;5047511;28;20218;-86
2022/09/26 11:26:32;;;;;;;3.38;3.08;;;;;;;30.54;33.26;94233.31;5043579;28;20195;-86
2022/09/26 11:29:10;;;;;;;4.75;3.13;;;;;;;30.52;33.31;94219.56;5047195;28;20210;-86
2022/09/26 11:31:42;;;;;;;6.20;2.63;;;;;;;30.40;33.23;94194.31;5028039;28;20608;-87
2022/09/26 11:34:16;;;;;;;9.45;3.28;;;;;;;30.47;33.00;94202.72;5047849;28;20203;-85
2022/09/26 11:37:04;;;;;;;4.32;2.95;;;;;;;30.62;33.21;94219.53;5044538;28;20212;-89
2022/09/26 11:39:44;;;;;;;3.47;2.33;;;;;;;30.65;33.28;94214.47;5033643;28;20195;-90
2022/09/26 11:42:28;;;;;;;2.67;2.40;;;;;;;30.69;33.10;94204.13;5036483;28;20202;-88
2022/09/26 11:44:57;;;;;;;3.50;2.80;;;;;;;30.73;33.11;94192.00;5031927;28;20192;-84
2022/09/26 11:47:42;;;;;;;4.22;2.90;;;;;;;30.71;33.22;94184.34;5046875;28;20211;-85
2022/09/26 11:50:29;;;;;;;4.97;2.60;;;;;;;30.80;32.99;94187.19;5050853;28;20215;-83
2022/09/26 11:53:10;;;;;;;3.42;2.72;;;;;;;30.86;32.94;94194.00;5049294;28;20227;-86
2022/09/26 11:55:51;;;;;;;2.85;2.55;;;;;;;30.81;33.36;94178.22;5051461;28;20187;-83
2022/09/26 11:58:27;;;;;;;3.30;2.53;;;;;;;30.87;32.88;94178.94;5050795;28;20199;-82
2022/09/26 12:01:04;;;;;;;5.78;2.60;;;;;;;30.79;33.23;94166.38;5048557;28;20200;-84
2022/09/26 12:04:00;;;;;;;2.70;2.50;;;;;;;30.84;33.17;94174.25;5048927;28;20198;-85
2022/09/26 12:06:33;;;;;;;5.28;2.83;;;;;;;30.72;33.16;94162.16;5044706;28;20259;-85
2022/09/26 12:09:20;;;;;;;4.50;2.40;;;;;;;30.78;33.08;94162.91;5042776;28;20213;-86
2022/09/26 12:11:59;;;;;;;3.05;2.45;;;;;;;30.69;33.24;94157.41;5037805;28;20203;-85
2022/09/26 12:14:40;;;;;;;4.38;2.40;;;;;;;30.75;33.23;94157.41;5038461;28;20194;-88
2022/09/26 12:17:20;;;;;;;3.90;2.10;;;;;;;30.67;33.26;94135.78;5037523;28;20218;-86
2022/09/26 12:19:54;;;;;;;2.30;2.10;;;;;;;30.78;33.63;94146.28;5036368;28;20188;-84
2022/09/26 12:22:32;;;;;;;5.32;2.78;;;;;;;30.79;33.41;94137.31;5027650;28;20261;-89
2022/09/26 12:25:17;;;;;;;2.58;2.38;;;;;;;30.87;33.61;94137.50;5031244;28;20199;-85
2022/09/26 12:27:52;;;;;;;2.72;2.53;;;;;;;30.57;33.36;94077.00;5036938;28;20697;-86
2022/09/26 12:30:25;;;;;;;3.42;2.42;;;;;;;30.85;33.75;94110.56;5030751;28;20683;-84
2022/09/26 12:33:09;;;;;;;3.78;2.40;;;;;;;30.88;33.30;94120.59;5036567;28;20216;-85
2022/09/26 12:35:55;;;;;;;5.40;2.30;;;;;;;30.81;33.88;94111.41;5030886;28;20199;-89
2022/09/26 12:38:50;;;;;;;2.85;2.47;;;;;;;30.72;33.85;94112.00;5036115;28;20314;-84
2022/09/26 12:42:02;;;;;;;2.17;1.98;;;;;;;30.72;33.69;94108.59;5039764;28;20198;-82
2022/09/26 12:44:43;;;;;;;2.78;2.22;;;;;;;30.63;33.66;94104.94;5013682;28;20196;-86
2022/09/26 12:47:35;;;;;;;3.67;2.13;;;;;;;30.63;33.87;94099.66;5025900;28;20192;-83
2022/09/26 12:50:17;;;;;;;4.60;2.15;;;;;;;30.65;33.86;94094.88;5028770;28;20184;-82
2022/09/26 12:53:08;;;;;;;2.42;2.20;;;;;;;30.57;33.89;94095.47;5006884;28;20242;-82
2022/09/26 12:55:40;;;;;;;3.45;2.35;;;;;;;30.47;34.19;94105.06;5009765;28;20207;-87
2022/09/26 12:58:23;;;;;;;2.95;2.10;;;;;;;30.36;34.07;94090.38;5012883;28;20200;-85
2022/09/26 13:00:59;;;;;;;4.40;2.33;;;;;;;30.27;34.20;94099.16;5006938;28;20192;-81
2022/09/26 13:04:00;;;;;;;2.85;1.75;;;;;;;30.17;34.50;94095.53;5029213;28;20195;-82
2022/09/26 13:06:54;;;;;;;3.72;2.28;;;;;;;30.07;34.68;94092.94;5029973;28;20200;-84
2022/09/26 13:09:34;;;;;;;2.45;1.90;;;;;;;29.95;34.68;94095.13;5030348;28;20192;-81
2022/09/26 13:12:12;;;;;;;2.67;2.30;;;;;;;29.83;35.02;94090.16;5044108;28;20238;-80
2022/09/26 13:14:56;;;;;;;2.85;2.55;;;;;;;29.74;34.83;94097.06;5044117;28;20186;-81
2022/09/26 13:17:27;;;;;;;3.80;2.22;;;;;;;29.63;35.15;94092.94;5030449;28;20271;-84
2022/09/26 13:20:02;;;;;;;2.38;2.17;;;;;;;29.50;35.27;94087.16;5031475;28;20199;-79
2022/09/26 13:22:37;;;;;;;1.90;1.80;;;;;;;29.39;35.13;94088.25;5032418;28;20201;-86
2022/09/26 13:25:17;;;;;;;3.58;2.50;;;;;;;29.25;35.57;94076.72;5033233;28;20187;-81
2022/09/26 13:27:51;;;;;;;3.25;2.20;;;;;;;29.15;35.63;94084.66;5034322;28;20203;-84
2022/09/26 13:30:23;;;;;;;2.83;2.13;;;;;;;28.98;35.80;94067.34;5035167;28;20203;-83
2022/09/26 13:32:58;;;;;;;3.75;2.05;;;;;;;28.94;35.77;94081.28;5038019;28;20219;-83
2022/09/26 13:35:30;;;;;;;2.20;2.00;;;;;;;28.86;35.89;94079.19;5037806;28;20183;-84
2022/09/26 13:38:22;;;;;;;2.78;2.20;;;;;;;28.73;36.37;94078.66;5042648;28;20235;-87
2022/09/26 13:40:57;;;;;;;3.35;2.28;;;;;;;28.56;35.82;94072.91;5037107;28;20251;-84
2022/09/26 13:43:42;;;;;;;2.20;2.05;;;;;;;28.47;36.52;94074.50;5040777;28;20187;-83
2022/09/26 13:46:19;;;;;;;2.10;2.00;;;;;;;28.33;36.61;94068.94;5040983;28;20274;-82
2022/09/26 13:48:57;;;;;;;3.17;2.10;;;;;;;28.22;36.42;94067.34;5049716;28;20195;-81
2022/09/26 13:51:35;;;;;;;2.45;2.25;;;;;;;28.02;36.85;94052.34;5046345;28;20230;-84
2022/09/26 13:54:15;;;;;;;2.97;2.20;;;;;;;28.02;36.67;94065.50;5055404;28;20246;-82
2022/09/26 13:56:46;;;;;;;4.25;2.70;;;;;;;27.90;37.07;94059.72;5056140;28;20192;-85
2022/09/26 13:59:33;;;;;;;4.15;2.47;;;;;;;27.77;37.11;94061.00;5048428;28;20211;-89
2022/09/26 14:02:27;;;;;;;2.35;1.90;;;;;;;27.63;37.13;94062.50;5048297;28;20225;-85
2022/09/26 14:05:48;;;;;;;2.25;2.05;;;;;;;27.50;37.54;94058.53;5052534;28;20357;-81
2022/09/26 14:11:28;;;;;;;2.30;2.10;;;;;;;27.21;37.88;94055.56;5038932;28;20382;-85
2022/09/26 14:14:38;;;;;;;3.42;2.72;;;;;;;27.11;38.00;94056.28;5043913;28;20737;-85
2022/09/26 14:17:57;;;;;;;2.70;2.50;;;;;;;26.98;38.16;94057.50;5039436;28;20234;-88
2022/09/26 14:20:28;;;;;;;4.85;2.30;;;;;;;26.87;38.03;94058.53;5031779;28;20200;-88
2022/09/26 14:22:57;;;;;;;2.45;2.25;;;;;;;26.68;38.07;94049.47;5033234;28;20230;-90
2022/09/26 14:25:57;;;;;;;2.88;2.30;;;;;;;26.69;38.45;94067.59;5029842;28;20190;-92
2022/09/26 14:28:33;;;;;;;2.40;2.20;;;;;;;26.48;38.22;94055.41;5027147;28;20685;-82
2022/09/26 14:31:37;;;;;;;3.67;2.47;;;;;;;26.45;38.71;94056.69;5027461;28;20212;-86
2022/09/26 14:34:21;;;;;;;5.07;2.88;;;;;;;26.41;38.77;94081.78;5026464;28;20221;-83
2022/09/26 14:36:50;;;;;;;2.67;2.47;;;;;;;26.31;39.17;94071.25;5030753;28;20219;-88
2022/09/26 14:39:38;;;;;;;2.97;2.17;;;;;;;26.24;39.23;94063.56;5010974;28;20188;-82
2022/09/26 14:42:17;;;;;;;2.50;2.30;;;;;;;26.11;39.23;94055.34;5028510;28;20187;-84
2022/09/26 14:44:53;;;;;;;2.55;2.35;;;;;;;26.12;39.25;94056.91;5030687;28;20215;-86
2022/09/26 14:47:20;;;;;;;4.35;1.98;;;;;;;25.90;39.17;94036.81;5027835;28;20202;-90
2022/09/26 14:49:58;;;;;;;2.20;2.00;;;;;;;25.88;39.31;94032.88;5035995;28;20191;-84
2022/09/26 14:52:25;;;;;;;2.40;2.20;;;;;;;25.72;39.18;94016.97;5035201;28;20583;-86
2022/09/26 14:55:00;;;;;;;2.40;2.20;;;;;;;25.91;39.61;94058.59;5031829;28;20187;-87
2022/09/26 14:57:31;;;;;;;3.60;2.20;;;;;;;25.76;39.29;94036.44;5037641;28;20628;-88
2022/09/26 15:00:05;;;;;;;3.50;1.98;;;;;;;25.80;39.49;94038.56;5028375;28;20191;-90
2022/09/26 15:02:43;;;;;;;4.18;2.60;;;;;;;25.65;39.56;94024.28;5019324;28;20210;-86
2022/09/26 15:05:25;;;;;;;3.20;2.20;;;;;;;25.40;39.70;93996.00;5028750;28;20230;-87
2022/09/26 15:07:54;;;;;;;2.20;2.10;;;;;;;25.58;40.00;94025.50;5026579;28;20196;-83
2022/09/26 15:10:28;;;;;;;3.90;2.35;;;;;;;25.51;39.89;94025.69;5029735;28;20207;-83
2022/09/26 15:13:09;;;;;;;2.58;2.13;;;;;;;25.43;39.93;94026.13;4998012;28;20231;-83
2022/09/26 15:15:56;;;;;;;2.63;2.00;;;;;;;25.36;40.03;94038.63;5016305;28;20270;-86
2022/09/26 15:18:35;;;;;;;2.92;2.10;;;;;;;25.27;40.41;94030.41;5008349;28;20223;-78
2022/09/26 15:21:10;;;;;;;2.85;2.50;;;;;;;25.19;40.35;94034.25;5028602;28;20536;-88
2022/09/26 15:23:47;;;;;;;2.47;2.22;;;;;;;25.14;40.55;94030.78;5029300;28;20198;-86
2022/09/26 15:26:16;;;;;;;3.72;2.58;;;;;;;25.00;40.60;94023.28;5030991;28;20214;-86
2022/09/26 15:28:48;;;;;;;2.33;2.15;;;;;;;24.93;40.91;94008.78;5025370;28;20207;-84
2022/09/26 15:31:22;;;;;;;4.28;2.42;;;;;;;24.94;40.77;94020.84;5029844;28;20257;-87
2022/09/26 15:33:51;;;;;;;2.75;2.55;;;;;;;24.86;40.86;94019.41;5029659;28;20219;-84
2022/09/26 15:36:18;;;;;;;2.40;1.98;;;;;;;24.83;41.11;94033.00;5029588;28;20191;-83
2022/09/26 15:38:46;;;;;;;2.38;2.22;;;;;;;24.78;40.86;94028.50;5029742;28;20250;-85
2022/09/26 15:41:17;;;;;;;2.13;1.92;;;;;;;24.72;40.92;94024.22;5029367;28;20196;-84
2022/09/26 15:43:44;;;;;;;3.53;2.35;;;;;;;24.67;41.01;94018.94;5029647;28;20203;-88
2022/09/26 15:46:22;;;;;;;2.17;2.05;;;;;;;24.62;41.37;94037.16;5029028;28;20642;-84
2022/09/26 15:48:49;;;;;;;3.47;2.35;;;;;;;24.60;41.22;94022.75;5026370;28;20196;-89
2022/09/26 15:51:20;;;;;;;3.55;2.40;;;;;;;24.56;41.50;94030.28;5027194;28;20184;-89
2022/09/26 15:53:50;;;;;;;3.95;2.10;;;;;;;24.51;41.63;94027.59;5030731;28;20211;-88
2022/09/26 15:56:20;;;;;;;2.72;2.40;;;;;;;24.25;41.82;93989.81;5033061;28;20188;-88